»·PEaware :: N6182G KSAN-KSNA

N6182G :: KSAN-KSNA

FLIGHT INFORMATION

Flight Status: Arrived
Operator: Privately registered:
United States
More flights under this callsign
Pilot: Patrick D. (5207)
Aircraft: CESSNA 182 SKYLANE
(C182)
More flights by this aircraft type
Origin: KSAN San Diego Intl-Lindbergh
United States
Destination: KSNA John Wayne-Orange Co
United States
More flights between these airports :: More routes between these airports
Route: OCN V23 SLI
File this flight plan on PilotEdge
Remarks:
Altitude:
(Current/Filed)
6,000ft
Speed:
(Current/Filed)
120kts
Departed: 01-Oct-17 03:46 PM
Arrived: 01-Oct-17 04:29 PM
Distance/Time
Traveled:
66nm/0:43
Distance/Time
To Go:
Arrived

Flight Plot

Page will automatically refresh every two minutes.


Map Options




Map Legend


Flown Route
Filed Route
Departure Airport
Arrival Airport
Navaid (VOR, NDB)
Fix

Horizontal Profiles

Position Reports

Time Latitude Longitude Heading Altitude Ground
Speed
01-Oct-17 15:20 32.732294 -117.177528 196 18ft 0kts
01-Oct-17 15:21 32.732294 -117.177528 196 18ft 0kts
01-Oct-17 15:22 32.732294 -117.177528 196 18ft 0kts
01-Oct-17 15:23 32.732294 -117.177528 196 18ft 0kts
01-Oct-17 15:24 32.732291 -117.177529 196 18ft 0kts
01-Oct-17 15:25 32.732287 -117.177530 196 18ft 0kts
01-Oct-17 15:26 32.732284 -117.177531 196 18ft 0kts
01-Oct-17 15:27 32.732280 -117.177533 196 18ft 0kts
01-Oct-17 15:28 32.732276 -117.177534 196 18ft 0kts
01-Oct-17 15:29 32.732272 -117.177535 196 18ft 0kts
01-Oct-17 15:30 32.732268 -117.177537 196 18ft 0kts
01-Oct-17 15:31 32.732264 -117.177538 196 18ft 0kts
01-Oct-17 15:32 32.732261 -117.177539 196 18ft 0kts
01-Oct-17 15:33 32.732257 -117.177540 196 18ft 0kts
01-Oct-17 15:34 32.732253 -117.177542 196 18ft 0kts
01-Oct-17 15:35 32.732250 -117.177543 196 18ft 0kts
01-Oct-17 15:36 32.732245 -117.177545 196 18ft 0kts
01-Oct-17 15:37 32.732242 -117.177546 196 18ft 0kts
01-Oct-17 15:38 32.732238 -117.177547 196 18ft 0kts
01-Oct-17 15:39 32.732234 -117.177549 196 18ft 0kts
01-Oct-17 15:40 32.732231 -117.177550 196 18ft 0kts
01-Oct-17 15:41 32.732204 -117.177556 184 18ft 0kts
01-Oct-17 15:42 32.732193 -117.177557 184 18ft 0kts
01-Oct-17 15:43 32.732189 -117.177557 184 18ft 0kts
01-Oct-17 15:44 32.732186 -117.177558 185 18ft 0kts
01-Oct-17 15:45 32.732183 -117.177558 185 18ft 0kts
01-Oct-17 15:46 32.732180 -117.177558 185 18ft 0kts
01-Oct-17 15:47 32.731403 -117.176701 128 18ft 10kts
01-Oct-17 15:48 32.730952 -117.175552 139 18ft 0kts
01-Oct-17 15:49 32.730571 -117.175232 172 18ft 11kts
01-Oct-17 15:50 32.731462 -117.181239 282 78ft 76kts
01-Oct-17 15:51 32.742265 -117.205997 331 1250ft 96kts
01-Oct-17 15:52 32.769281 -117.216755 333 2099ft 124kts
01-Oct-17 15:53 32.800332 -117.236742 327 2066ft 124kts
01-Oct-17 15:54 32.831924 -117.251272 341 2335ft 106kts
01-Oct-17 15:55 32.858940 -117.257567 342 3241ft 97kts
01-Oct-17 15:56 32.884795 -117.263969 337 4131ft 91kts
01-Oct-17 15:57 32.908953 -117.273688 332 4884ft 95kts
01-Oct-17 15:58 32.930979 -117.289262 320 5572ft 94kts
01-Oct-17 15:59 32.955239 -117.308649 321 5841ft 120kts
01-Oct-17 16:00 32.983941 -117.332350 320 5841ft 127kts
01-Oct-17 16:01 33.016638 -117.344080 2 6034ft 135kts
01-Oct-17 16:02 33.054255 -117.335724 4 6038ft 139kts
01-Oct-17 16:03 33.092104 -117.332963 347 6034ft 135kts
01-Oct-17 16:04 33.129692 -117.337865 348 6038ft 136kts
01-Oct-17 16:05 33.166926 -117.344179 337 6029ft 133kts
01-Oct-17 16:06 33.200163 -117.362326 330 6033ft 131kts
01-Oct-17 16:07 33.231128 -117.384310 321 6033ft 130kts
01-Oct-17 16:08 33.260465 -117.408939 313 6033ft 128kts
01-Oct-17 16:09 33.279933 -117.443601 294 6033ft 127kts
01-Oct-17 16:10 33.295133 -117.480842 323 6031ft 128kts
01-Oct-17 16:11 33.323026 -117.506188 321 6036ft 125kts
01-Oct-17 16:12 33.351705 -117.530255 321 6032ft 126kts
01-Oct-17 16:13 33.380284 -117.554221 321 6033ft 125kts
01-Oct-17 16:14 33.394916 -117.590033 310 6035ft 124kts
01-Oct-17 16:15 33.419437 -117.619072 314 6038ft 124kts
01-Oct-17 16:16 33.444476 -117.647405 314 6037ft 124kts
01-Oct-17 16:17 33.469659 -117.676015 315 6008ft 133kts
01-Oct-17 16:18 33.495852 -117.705654 315 5956ft 132kts
01-Oct-17 16:19 33.521463 -117.734653 314 6051ft 125kts
01-Oct-17 16:20 33.546750 -117.763086 314 6039ft 124kts
01-Oct-17 16:21 33.572191 -117.791762 314 6042ft 126kts
01-Oct-17 16:22 33.597242 -117.820339 315 6042ft 126kts
01-Oct-17 16:23 33.623637 -117.847864 325 6044ft 127kts
01-Oct-17 16:24 33.654084 -117.851485 24 5590ft 102kts
01-Oct-17 16:25 33.672846 -117.829329 76 4996ft 103kts
01-Oct-17 16:26 33.654859 -117.814373 215 4384ft 84kts
01-Oct-17 16:27 33.661011 -117.829511 10 3547ft 95kts
01-Oct-17 16:28 33.686097 -117.814559 22 2559ft 105kts
01-Oct-17 16:29 33.712175 -117.805602 321 1750ft 86kts
01-Oct-17 16:30 33.710976 -117.829278 235 1516ft 62kts
01-Oct-17 16:31 33.702206 -117.848017 220 1042ft 59kts
01-Oct-17 16:32 33.688368 -117.858880 210 419ft 59kts
01-Oct-17 16:33 33.678163 -117.865434 208 59ft 13kts
01-Oct-17 16:34 33.676894 -117.865687 120 59ft 0kts
01-Oct-17 16:35 33.676893 -117.865684 120 59ft 0kts
01-Oct-17 16:36 33.676891 -117.865679 120 59ft 0kts
01-Oct-17 16:37 33.675799 -117.866022 208 59ft 8kts
01-Oct-17 16:38 33.673786 -117.867150 155 59ft 4kts
01-Oct-17 16:39 33.672143 -117.866949 174 59ft 0kts
01-Oct-17 16:40 33.671892 -117.867073 204 59ft 0kts
01-Oct-17 16:41 33.671892 -117.867073 204 59ft 0kts
01-Oct-17 16:42 33.671892 -117.867073 204 59ft 0kts
01-Oct-17 16:43 33.671892 -117.867073 204 59ft 0kts
01-Oct-17 16:44 33.671892 -117.867073 204 59ft 0kts
01-Oct-17 16:45 33.671892 -117.867073 204 59ft 0kts
01-Oct-17 16:46 33.671892 -117.867073 204 59ft 0kts

Navigation Log

Ident Type
1. KSAN Airport
2. OCN Navaid
3. KELPS Fix
4. DANAH Fix
5. KRAUZ Fix
6. BALBO Fix
7. MIDDS Fix
8. SLI Navaid
9. KSNA Airport